sensor_id;sensor_type;location;lat;lon;timestamp;P1;durP1;ratioP1;P2;durP2;ratioP2
22382;SDS011;11359;45.802;13.530;2023-02-15T00:00:13;1.92;;;1.50;;
22382;SDS011;11359;45.802;13.530;2023-02-15T00:02:39;2.47;;;1.80;;
22382;SDS011;11359;45.802;13.530;2023-02-15T00:05:05;1.50;;;1.40;;
22382;SDS011;11359;45.802;13.530;2023-02-15T00:07:32;2.47;;;2.00;;
22382;SDS011;11359;45.802;13.530;2023-02-15T00:09:57;2.10;;;1.73;;
22382;SDS011;11359;45.802;13.530;2023-02-15T00:12:23;2.70;;;2.25;;
22382;SDS011;11359;45.802;13.530;2023-02-15T00:14:48;2.60;;;2.10;;
22382;SDS011;11359;45.802;13.530;2023-02-15T00:17:14;3.08;;;2.28;;
22382;SDS011;11359;45.802;13.530;2023-02-15T00:19:40;3.20;;;2.50;;
22382;SDS011;11359;45.802;13.530;2023-02-15T00:22:05;2.28;;;2.03;;
22382;SDS011;11359;45.802;13.530;2023-02-15T00:24:31;2.10;;;1.80;;
22382;SDS011;11359;45.802;13.530;2023-02-15T00:26:57;2.83;;;2.25;;
22382;SDS011;11359;45.802;13.530;2023-02-15T00:29:23;4.13;;;2.92;;
22382;SDS011;11359;45.802;13.530;2023-02-15T00:31:49;3.65;;;2.75;;
22382;SDS011;11359;45.802;13.530;2023-02-15T00:34:20;3.80;;;2.83;;
22382;SDS011;11359;45.802;13.530;2023-02-15T00:36:47;4.32;;;3.17;;
22382;SDS011;11359;45.802;13.530;2023-02-15T00:39:15;5.50;;;3.95;;
22382;SDS011;11359;45.802;13.530;2023-02-15T00:41:41;5.05;;;4.00;;
22382;SDS011;11359;45.802;13.530;2023-02-15T00:44:07;4.78;;;3.65;;
22382;SDS011;11359;45.802;13.530;2023-02-15T00:46:33;4.32;;;3.60;;
22382;SDS011;11359;45.802;13.530;2023-02-15T00:48:59;4.88;;;4.05;;
22382;SDS011;11359;45.802;13.530;2023-02-15T00:51:25;5.07;;;4.15;;
22382;SDS011;11359;45.802;13.530;2023-02-15T00:53:51;5.60;;;4.03;;
22382;SDS011;11359;45.802;13.530;2023-02-15T00:56:17;4.68;;;3.83;;
22382;SDS011;11359;45.802;13.530;2023-02-15T00:58:42;4.28;;;3.53;;
22382;SDS011;11359;45.802;13.530;2023-02-15T01:01:18;4.32;;;3.40;;
22382;SDS011;11359;45.802;13.530;2023-02-15T01:03:45;3.85;;;3.17;;
22382;SDS011;11359;45.802;13.530;2023-02-15T01:06:12;4.10;;;3.33;;
22382;SDS011;11359;45.802;13.530;2023-02-15T01:08:40;4.15;;;3.15;;
22382;SDS011;11359;45.802;13.530;2023-02-15T01:11:08;4.57;;;3.40;;
22382;SDS011;11359;45.802;13.530;2023-02-15T01:13:36;4.82;;;3.58;;
22382;SDS011;11359;45.802;13.530;2023-02-15T01:16:02;4.10;;;3.30;;
22382;SDS011;11359;45.802;13.530;2023-02-15T01:18:29;3.60;;;3.08;;
22382;SDS011;11359;45.802;13.530;2023-02-15T01:20:55;4.43;;;3.33;;
22382;SDS011;11359;45.802;13.530;2023-02-15T01:23:21;3.97;;;2.90;;
22382;SDS011;11359;45.802;13.530;2023-02-15T01:25:47;2.95;;;2.45;;
22382;SDS011;11359;45.802;13.530;2023-02-15T01:28:13;2.80;;;2.08;;
22382;SDS011;11359;45.802;13.530;2023-02-15T01:30:38;2.65;;;2.03;;
22382;SDS011;11359;45.802;13.530;2023-02-15T01:33:04;2.25;;;1.77;;
22382;SDS011;11359;45.802;13.530;2023-02-15T01:35:34;2.28;;;1.73;;
22382;SDS011;11359;45.802;13.530;2023-02-15T01:38:01;2.25;;;1.80;;
22382;SDS011;11359;45.802;13.530;2023-02-15T01:40:27;2.03;;;1.70;;
22382;SDS011;11359;45.802;13.530;2023-02-15T01:42:53;1.75;;;1.42;;
22382;SDS011;11359;45.802;13.530;2023-02-15T01:45:30;1.77;;;1.38;;
22382;SDS011;11359;45.802;13.530;2023-02-15T01:48:02;1.80;;;1.50;;
22382;SDS011;11359;45.802;13.530;2023-02-15T01:50:34;1.90;;;1.48;;
22382;SDS011;11359;45.802;13.530;2023-02-15T01:55:49;1.88;;;1.50;;
22382;SDS011;11359;45.802;13.530;2023-02-15T01:58:19;1.45;;;1.20;;
22382;SDS011;11359;45.802;13.530;2023-02-15T02:00:46;2.35;;;1.55;;
22382;SDS011;11359;45.802;13.530;2023-02-15T02:03:12;1.85;;;1.38;;
22382;SDS011;11359;45.802;13.530;2023-02-15T02:05:38;2.13;;;1.30;;
22382;SDS011;11359;45.802;13.530;2023-02-15T02:08:05;1.60;;;1.27;;
22382;SDS011;11359;45.802;13.530;2023-02-15T02:10:32;1.45;;;1.17;;
22382;SDS011;11359;45.802;13.530;2023-02-15T02:12:59;1.40;;;1.20;;
22382;SDS011;11359;45.802;13.530;2023-02-15T02:15:31;1.95;;;1.45;;
22382;SDS011;11359;45.802;13.530;2023-02-15T02:18:15;2.67;;;1.85;;
22382;SDS011;11359;45.802;13.530;2023-02-15T02:23:56;2.25;;;1.88;;
22382;SDS011;11359;45.802;13.530;2023-02-15T02:26:51;3.03;;;2.08;;
22382;SDS011;11359;45.802;13.530;2023-02-15T02:40:38;1.83;;;1.50;;
22382;SDS011;11359;45.802;13.530;2023-02-15T02:46:02;1.92;;;1.40;;
22382;SDS011;11359;45.802;13.530;2023-02-15T02:48:49;2.50;;;1.75;;
22382;SDS011;11359;45.802;13.530;2023-02-15T02:51:15;2.97;;;2.30;;
22382;SDS011;11359;45.802;13.530;2023-02-15T02:53:46;3.53;;;2.70;;
22382;SDS011;11359;45.802;13.530;2023-02-15T02:59:20;3.65;;;2.65;;
22382;SDS011;11359;45.802;13.530;2023-02-15T03:01:56;3.05;;;2.60;;
22382;SDS011;11359;45.802;13.530;2023-02-15T03:04:28;3.25;;;2.20;;
22382;SDS011;11359;45.802;13.530;2023-02-15T03:07:03;2.65;;;2.00;;
22382;SDS011;11359;45.802;13.530;2023-02-15T03:09:36;1.98;;;1.70;;
22382;SDS011;11359;45.802;13.530;2023-02-15T03:12:08;2.05;;;1.50;;
22382;SDS011;11359;45.802;13.530;2023-02-15T03:14:40;2.75;;;1.80;;
22382;SDS011;11359;45.802;13.530;2023-02-15T03:17:08;1.88;;;1.55;;
22382;SDS011;11359;45.802;13.530;2023-02-15T03:19:37;2.20;;;1.52;;
22382;SDS011;11359;45.802;13.530;2023-02-15T03:22:13;2.08;;;1.50;;
22382;SDS011;11359;45.802;13.530;2023-02-15T03:25:04;1.73;;;1.38;;
22382;SDS011;11359;45.802;13.530;2023-02-15T03:27:33;1.92;;;1.70;;
22382;SDS011;11359;45.802;13.530;2023-02-15T03:30:05;1.48;;;1.23;;
22382;SDS011;11359;45.802;13.530;2023-02-15T03:32:32;2.13;;;1.35;;
22382;SDS011;11359;45.802;13.530;2023-02-15T03:35:00;1.45;;;1.30;;
22382;SDS011;11359;45.802;13.530;2023-02-15T03:37:28;1.85;;;1.50;;
22382;SDS011;11359;45.802;13.530;2023-02-15T03:40:11;1.90;;;1.30;;
22382;SDS011;11359;45.802;13.530;2023-02-15T03:45:47;3.38;;;2.40;;
22382;SDS011;11359;45.802;13.530;2023-02-15T03:48:36;3.45;;;2.83;;
22382;SDS011;11359;45.802;13.530;2023-02-15T03:51:13;3.03;;;2.30;;
22382;SDS011;11359;45.802;13.530;2023-02-15T03:54:02;2.97;;;2.10;;
22382;SDS011;11359;45.802;13.530;2023-02-15T03:56:28;2.50;;;2.10;;
22382;SDS011;11359;45.802;13.530;2023-02-15T03:58:54;2.10;;;1.73;;
22382;SDS011;11359;45.802;13.530;2023-02-15T04:01:52;2.60;;;2.10;;
22382;SDS011;11359;45.802;13.530;2023-02-15T04:04:42;3.28;;;2.10;;
22382;SDS011;11359;45.802;13.530;2023-02-15T04:07:10;2.28;;;1.70;;
22382;SDS011;11359;45.802;13.530;2023-02-15T04:09:36;2.65;;;2.15;;
22382;SDS011;11359;45.802;13.530;2023-02-15T04:12:21;3.17;;;2.45;;
22382;SDS011;11359;45.802;13.530;2023-02-15T04:14:47;2.85;;;2.05;;
22382;SDS011;11359;45.802;13.530;2023-02-15T04:19:56;3.80;;;2.60;;
22382;SDS011;11359;45.802;13.530;2023-02-15T04:22:40;2.80;;;2.47;;
22382;SDS011;11359;45.802;13.530;2023-02-15T04:27:51;2.53;;;2.30;;
22382;SDS011;11359;45.802;13.530;2023-02-15T04:30:19;2.08;;;1.80;;
22382;SDS011;11359;45.802;13.530;2023-02-15T04:32:48;2.78;;;2.17;;
22382;SDS011;11359;45.802;13.530;2023-02-15T04:35:14;2.40;;;1.90;;
22382;SDS011;11359;45.802;13.530;2023-02-15T04:37:41;2.08;;;1.70;;
22382;SDS011;11359;45.802;13.530;2023-02-15T04:40:09;2.45;;;1.98;;
22382;SDS011;11359;45.802;13.530;2023-02-15T04:42:36;2.42;;;1.80;;
22382;SDS011;11359;45.802;13.530;2023-02-15T04:45:02;2.75;;;2.25;;
22382;SDS011;11359;45.802;13.530;2023-02-15T04:47:28;2.88;;;2.10;;
22382;SDS011;11359;45.802;13.530;2023-02-15T04:49:54;3.25;;;2.35;;
22382;SDS011;11359;45.802;13.530;2023-02-15T04:52:20;2.60;;;2.10;;
22382;SDS011;11359;45.802;13.530;2023-02-15T04:54:46;2.63;;;1.90;;
22382;SDS011;11359;45.802;13.530;2023-02-15T04:57:13;2.58;;;1.88;;
22382;SDS011;11359;45.802;13.530;2023-02-15T04:59:39;2.22;;;1.60;;
22382;SDS011;11359;45.802;13.530;2023-02-15T05:02:04;2.83;;;2.15;;
22382;SDS011;11359;45.802;13.530;2023-02-15T05:04:30;2.45;;;2.00;;
22382;SDS011;11359;45.802;13.530;2023-02-15T05:06:56;1.80;;;1.52;;
22382;SDS011;11359;45.802;13.530;2023-02-15T05:09:22;1.80;;;1.33;;
22382;SDS011;11359;45.802;13.530;2023-02-15T05:11:47;2.08;;;1.65;;
22382;SDS011;11359;45.802;13.530;2023-02-15T05:14:13;2.63;;;2.10;;
22382;SDS011;11359;45.802;13.530;2023-02-15T05:16:39;1.90;;;1.67;;
22382;SDS011;11359;45.802;13.530;2023-02-15T05:19:04;1.88;;;1.40;;
22382;SDS011;11359;45.802;13.530;2023-02-15T05:21:31;2.17;;;1.45;;
22382;SDS011;11359;45.802;13.530;2023-02-15T05:23:57;2.08;;;1.58;;
22382;SDS011;11359;45.802;13.530;2023-02-15T05:26:23;2.05;;;1.55;;
22382;SDS011;11359;45.802;13.530;2023-02-15T05:29:08;2.83;;;2.25;;
22382;SDS011;11359;45.802;13.530;2023-02-15T05:31:34;1.65;;;1.40;;
22382;SDS011;11359;45.802;13.530;2023-02-15T05:34:00;2.33;;;1.65;;
22382;SDS011;11359;45.802;13.530;2023-02-15T05:36:26;2.67;;;1.80;;
22382;SDS011;11359;45.802;13.530;2023-02-15T05:38:53;2.13;;;1.70;;
22382;SDS011;11359;45.802;13.530;2023-02-15T05:41:19;1.95;;;1.50;;
22382;SDS011;11359;45.802;13.530;2023-02-15T05:43:45;1.63;;;1.30;;
22382;SDS011;11359;45.802;13.530;2023-02-15T05:46:11;1.40;;;1.10;;
22382;SDS011;11359;45.802;13.530;2023-02-15T05:48:37;1.67;;;1.30;;
22382;SDS011;11359;45.802;13.530;2023-02-15T05:51:04;1.65;;;1.27;;
22382;SDS011;11359;45.802;13.530;2023-02-15T05:53:33;2.00;;;1.27;;
22382;SDS011;11359;45.802;13.530;2023-02-15T05:56:01;1.60;;;1.25;;
22382;SDS011;11359;45.802;13.530;2023-02-15T05:58:28;2.35;;;1.60;;
22382;SDS011;11359;45.802;13.530;2023-02-15T06:00:56;1.48;;;1.15;;
22382;SDS011;11359;45.802;13.530;2023-02-15T06:03:22;1.55;;;1.10;;
22382;SDS011;11359;45.802;13.530;2023-02-15T06:05:50;1.73;;;1.23;;
22382;SDS011;11359;45.802;13.530;2023-02-15T06:08:17;1.30;;;1.08;;
22382;SDS011;11359;45.802;13.530;2023-02-15T06:10:43;1.50;;;1.20;;
22382;SDS011;11359;45.802;13.530;2023-02-15T06:13:11;2.10;;;1.27;;
22382;SDS011;11359;45.802;13.530;2023-02-15T06:15:36;1.52;;;1.35;;
22382;SDS011;11359;45.802;13.530;2023-02-15T06:18:02;1.95;;;1.42;;
22382;SDS011;11359;45.802;13.530;2023-02-15T06:20:28;1.70;;;1.35;;
22382;SDS011;11359;45.802;13.530;2023-02-15T06:22:53;1.48;;;1.23;;
22382;SDS011;11359;45.802;13.530;2023-02-15T06:25:19;1.65;;;1.38;;
22382;SDS011;11359;45.802;13.530;2023-02-15T06:27:45;1.92;;;1.40;;
22382;SDS011;11359;45.802;13.530;2023-02-15T06:30:11;2.35;;;1.55;;
22382;SDS011;11359;45.802;13.530;2023-02-15T06:32:38;2.10;;;1.50;;
22382;SDS011;11359;45.802;13.530;2023-02-15T06:35:05;1.75;;;1.30;;
22382;SDS011;11359;45.802;13.530;2023-02-15T06:37:31;1.88;;;1.35;;
22382;SDS011;11359;45.802;13.530;2023-02-15T06:39:57;2.08;;;1.40;;
22382;SDS011;11359;45.802;13.530;2023-02-15T06:42:23;1.45;;;1.30;;
22382;SDS011;11359;45.802;13.530;2023-02-15T06:44:49;1.80;;;1.45;;
22382;SDS011;11359;45.802;13.530;2023-02-15T06:47:15;1.75;;;1.30;;
22382;SDS011;11359;45.802;13.530;2023-02-15T06:49:41;2.05;;;1.40;;
22382;SDS011;11359;45.802;13.530;2023-02-15T06:52:06;1.55;;;1.30;;
22382;SDS011;11359;45.802;13.530;2023-02-15T06:54:32;1.60;;;1.20;;
22382;SDS011;11359;45.802;13.530;2023-02-15T06:56:58;1.70;;;1.27;;
22382;SDS011;11359;45.802;13.530;2023-02-15T06:59:24;1.90;;;1.70;;
22382;SDS011;11359;45.802;13.530;2023-02-15T07:01:50;1.98;;;1.60;;
22382;SDS011;11359;45.802;13.530;2023-02-15T07:04:16;2.22;;;1.60;;
22382;SDS011;11359;45.802;13.530;2023-02-15T07:06:42;2.15;;;1.60;;
22382;SDS011;11359;45.802;13.530;2023-02-15T07:09:08;1.85;;;1.40;;
22382;SDS011;11359;45.802;13.530;2023-02-15T07:11:34;2.05;;;1.75;;
22382;SDS011;11359;45.802;13.530;2023-02-15T07:14:18;2.40;;;1.60;;
22382;SDS011;11359;45.802;13.530;2023-02-15T07:16:44;1.67;;;1.30;;
22382;SDS011;11359;45.802;13.530;2023-02-15T07:19:10;2.33;;;1.42;;
22382;SDS011;11359;45.802;13.530;2023-02-15T07:21:36;2.30;;;1.83;;
22382;SDS011;11359;45.802;13.530;2023-02-15T07:24:02;2.15;;;1.70;;
22382;SDS011;11359;45.802;13.530;2023-02-15T07:26:28;2.08;;;1.63;;
22382;SDS011;11359;45.802;13.530;2023-02-15T07:28:56;2.88;;;1.77;;
22382;SDS011;11359;45.802;13.530;2023-02-15T07:31:22;2.10;;;1.80;;
22382;SDS011;11359;45.802;13.530;2023-02-15T07:33:48;2.22;;;1.80;;
22382;SDS011;11359;45.802;13.530;2023-02-15T07:36:13;1.65;;;1.42;;
22382;SDS011;11359;45.802;13.530;2023-02-15T07:38:40;2.10;;;1.60;;
22382;SDS011;11359;45.802;13.530;2023-02-15T07:41:10;2.17;;;1.48;;
22382;SDS011;11359;45.802;13.530;2023-02-15T07:43:38;1.63;;;1.52;;
22382;SDS011;11359;45.802;13.530;2023-02-15T07:46:06;1.98;;;1.52;;
22382;SDS011;11359;45.802;13.530;2023-02-15T07:48:42;2.08;;;1.55;;
22382;SDS011;11359;45.802;13.530;2023-02-15T07:51:09;2.00;;;1.50;;
22382;SDS011;11359;45.802;13.530;2023-02-15T07:53:36;2.08;;;1.80;;
22382;SDS011;11359;45.802;13.530;2023-02-15T07:56:08;2.33;;;1.88;;
22382;SDS011;11359;45.802;13.530;2023-02-15T07:58:36;2.92;;;1.90;;
22382;SDS011;11359;45.802;13.530;2023-02-15T08:01:21;2.55;;;2.03;;
22382;SDS011;11359;45.802;13.530;2023-02-15T08:03:52;2.53;;;1.67;;
22382;SDS011;11359;45.802;13.530;2023-02-15T08:06:19;1.75;;;1.40;;
22382;SDS011;11359;45.802;13.530;2023-02-15T08:08:46;1.98;;;1.70;;
22382;SDS011;11359;45.802;13.530;2023-02-15T08:16:40;2.58;;;1.55;;
22382;SDS011;11359;45.802;13.530;2023-02-15T08:19:11;2.10;;;1.60;;
22382;SDS011;11359;45.802;13.530;2023-02-15T08:21:42;3.03;;;1.58;;
22382;SDS011;11359;45.802;13.530;2023-02-15T08:24:09;2.50;;;1.58;;
22382;SDS011;11359;45.802;13.530;2023-02-15T08:26:37;1.90;;;1.60;;
22382;SDS011;11359;45.802;13.530;2023-02-15T08:29:04;1.95;;;1.52;;
22382;SDS011;11359;45.802;13.530;2023-02-15T08:31:34;2.20;;;1.67;;
22382;SDS011;11359;45.802;13.530;2023-02-15T08:34:02;1.50;;;1.23;;
22382;SDS011;11359;45.802;13.530;2023-02-15T08:36:30;1.55;;;1.20;;
22382;SDS011;11359;45.802;13.530;2023-02-15T08:38:57;2.50;;;1.50;;
22382;SDS011;11359;45.802;13.530;2023-02-15T08:41:25;2.78;;;1.73;;
22382;SDS011;11359;45.802;13.530;2023-02-15T08:43:56;1.77;;;1.42;;
22382;SDS011;11359;45.802;13.530;2023-02-15T08:46:27;1.65;;;1.30;;
22382;SDS011;11359;45.802;13.530;2023-02-15T08:48:54;1.33;;;1.20;;
22382;SDS011;11359;45.802;13.530;2023-02-15T08:51:21;1.38;;;1.20;;
22382;SDS011;11359;45.802;13.530;2023-02-15T08:53:58;1.25;;;1.15;;
22382;SDS011;11359;45.802;13.530;2023-02-15T08:56:28;1.30;;;1.20;;
22382;SDS011;11359;45.802;13.530;2023-02-15T08:58:57;1.48;;;1.15;;
22382;SDS011;11359;45.802;13.530;2023-02-15T09:01:24;1.27;;;1.15;;
22382;SDS011;11359;45.802;13.530;2023-02-15T09:03:55;1.20;;;1.10;;
22382;SDS011;11359;45.802;13.530;2023-02-15T09:06:25;1.58;;;1.20;;
22382;SDS011;11359;45.802;13.530;2023-02-15T09:08:51;1.33;;;1.10;;
22382;SDS011;11359;45.802;13.530;2023-02-15T09:11:19;1.27;;;1.00;;
22382;SDS011;11359;45.802;13.530;2023-02-15T09:13:51;1.23;;;1.00;;
22382;SDS011;11359;45.802;13.530;2023-02-15T09:16:18;1.73;;;1.42;;
22382;SDS011;11359;45.802;13.530;2023-02-15T09:18:45;2.45;;;1.70;;
22382;SDS011;11359;45.802;13.530;2023-02-15T09:21:15;2.08;;;1.50;;
22382;SDS011;11359;45.802;13.530;2023-02-15T09:23:44;2.50;;;1.55;;
22382;SDS011;11359;45.802;13.530;2023-02-15T09:26:12;2.78;;;1.90;;
22382;SDS011;11359;45.802;13.530;2023-02-15T09:28:39;2.70;;;1.95;;
22382;SDS011;11359;45.802;13.530;2023-02-15T09:33:42;2.30;;;1.85;;
22382;SDS011;11359;45.802;13.530;2023-02-15T09:36:14;2.22;;;1.73;;
22382;SDS011;11359;45.802;13.530;2023-02-15T09:38:46;2.60;;;2.00;;
22382;SDS011;11359;45.802;13.530;2023-02-15T09:54:57;2.08;;;1.20;;
22382;SDS011;11359;45.802;13.530;2023-02-15T10:19:22;2.55;;;2.30;;
22382;SDS011;11359;45.802;13.530;2023-02-15T10:26:54;3.72;;;3.30;;
22382;SDS011;11359;45.802;13.530;2023-02-15T10:29:37;4.00;;;3.20;;
22382;SDS011;11359;45.802;13.530;2023-02-15T10:37:58;3.75;;;3.28;;
22382;SDS011;11359;45.802;13.530;2023-02-15T10:52:39;4.85;;;3.72;;
22382;SDS011;11359;45.802;13.530;2023-02-15T11:01:25;4.47;;;3.67;;
22382;SDS011;11359;45.802;13.530;2023-02-15T11:06:49;4.50;;;3.65;;
22382;SDS011;11359;45.802;13.530;2023-02-15T11:09:18;3.95;;;3.28;;
22382;SDS011;11359;45.802;13.530;2023-02-15T11:11:51;2.97;;;2.60;;
22382;SDS011;11359;45.802;13.530;2023-02-15T11:14:23;4.00;;;3.33;;
22382;SDS011;11359;45.802;13.530;2023-02-15T11:16:53;3.00;;;2.63;;
22382;SDS011;11359;45.802;13.530;2023-02-15T11:19:32;3.53;;;2.90;;
22382;SDS011;11359;45.802;13.530;2023-02-15T11:22:02;3.70;;;2.97;;
22382;SDS011;11359;45.802;13.530;2023-02-15T11:24:31;3.55;;;2.88;;
22382;SDS011;11359;45.802;13.530;2023-02-15T11:27:05;4.40;;;3.70;;
22382;SDS011;11359;45.802;13.530;2023-02-15T11:32:35;4.05;;;3.13;;
22382;SDS011;11359;45.802;13.530;2023-02-15T11:37:37;3.35;;;2.80;;
22382;SDS011;11359;45.802;13.530;2023-02-15T11:40:20;3.50;;;3.20;;
22382;SDS011;11359;45.802;13.530;2023-02-15T11:42:51;3.65;;;3.10;;
22382;SDS011;11359;45.802;13.530;2023-02-15T11:45:30;2.70;;;2.40;;
22382;SDS011;11359;45.802;13.530;2023-02-15T11:47:59;2.60;;;2.20;;
22382;SDS011;11359;45.802;13.530;2023-02-15T11:50:30;3.22;;;2.67;;
22382;SDS011;11359;45.802;13.530;2023-02-15T11:53:05;2.50;;;2.30;;
22382;SDS011;11359;45.802;13.530;2023-02-15T11:55:37;2.95;;;2.40;;
22382;SDS011;11359;45.802;13.530;2023-02-15T11:58:08;3.15;;;2.65;;
22382;SDS011;11359;45.802;13.530;2023-02-15T12:00:49;2.95;;;2.65;;
22382;SDS011;11359;45.802;13.530;2023-02-15T12:03:21;2.80;;;2.50;;
22382;SDS011;11359;45.802;13.530;2023-02-15T12:05:58;3.25;;;2.88;;
22382;SDS011;11359;45.802;13.530;2023-02-15T12:08:32;2.95;;;2.65;;
22382;SDS011;11359;45.802;13.530;2023-02-15T12:11:09;3.40;;;2.60;;
22382;SDS011;11359;45.802;13.530;2023-02-15T12:13:56;3.35;;;2.90;;
22382;SDS011;11359;45.802;13.530;2023-02-15T12:16:24;3.53;;;2.75;;
22382;SDS011;11359;45.802;13.530;2023-02-15T12:18:53;3.92;;;2.78;;
22382;SDS011;11359;45.802;13.530;2023-02-15T12:24:00;4.03;;;3.22;;
22382;SDS011;11359;45.802;13.530;2023-02-15T12:26:55;4.25;;;3.53;;
22382;SDS011;11359;45.802;13.530;2023-02-15T12:29:25;3.95;;;3.50;;
22382;SDS011;11359;45.802;13.530;2023-02-15T12:31:54;4.32;;;3.63;;
22382;SDS011;11359;45.802;13.530;2023-02-15T12:36:57;3.75;;;3.05;;
22382;SDS011;11359;45.802;13.530;2023-02-15T12:39:30;4.55;;;3.80;;
22382;SDS011;11359;45.802;13.530;2023-02-15T12:44:26;4.38;;;3.70;;
22382;SDS011;11359;45.802;13.530;2023-02-15T12:46:58;4.45;;;3.67;;
22382;SDS011;11359;45.802;13.530;2023-02-15T12:49:36;3.40;;;3.00;;
22382;SDS011;11359;45.802;13.530;2023-02-15T12:52:04;3.72;;;3.00;;
22382;SDS011;11359;45.802;13.530;2023-02-15T12:54:42;4.63;;;3.35;;
22382;SDS011;11359;45.802;13.530;2023-02-15T13:07:48;3.30;;;2.70;;
22382;SDS011;11359;45.802;13.530;2023-02-15T13:12:54;3.65;;;2.70;;
22382;SDS011;11359;45.802;13.530;2023-02-15T13:17:57;6.07;;;4.45;;
22382;SDS011;11359;45.802;13.530;2023-02-15T13:20:24;6.55;;;4.90;;
22382;SDS011;11359;45.802;13.530;2023-02-15T13:22:53;6.00;;;4.82;;
22382;SDS011;11359;45.802;13.530;2023-02-15T13:25:28;6.55;;;5.13;;
22382;SDS011;11359;45.802;13.530;2023-02-15T13:28:02;5.88;;;5.00;;
22382;SDS011;11359;45.802;13.530;2023-02-15T13:30:31;5.65;;;4.75;;
22382;SDS011;11359;45.802;13.530;2023-02-15T13:33:06;5.75;;;4.57;;
22382;SDS011;11359;45.802;13.530;2023-02-15T13:35:46;6.30;;;4.65;;
22382;SDS011;11359;45.802;13.530;2023-02-15T13:41:31;6.22;;;5.22;;
22382;SDS011;11359;45.802;13.530;2023-02-15T13:44:15;5.53;;;4.78;;
22382;SDS011;11359;45.802;13.530;2023-02-15T13:46:55;4.65;;;4.10;;
22382;SDS011;11359;45.802;13.530;2023-02-15T13:49:44;5.03;;;4.13;;
22382;SDS011;11359;45.802;13.530;2023-02-15T13:52:43;4.88;;;4.03;;
22382;SDS011;11359;45.802;13.530;2023-02-15T14:04:49;5.88;;;4.80;;
22382;SDS011;11359;45.802;13.530;2023-02-15T14:07:06;7.18;;;5.35;;
22382;SDS011;11359;45.802;13.530;2023-02-15T14:09:59;5.18;;;4.38;;
22382;SDS011;11359;45.802;13.530;2023-02-15T14:18:20;5.35;;;4.68;;
22382;SDS011;11359;45.802;13.530;2023-02-15T14:24:33;5.07;;;3.88;;
22382;SDS011;11359;45.802;13.530;2023-02-15T14:29:56;4.85;;;4.15;;
22382;SDS011;11359;45.802;13.530;2023-02-15T14:32:32;4.82;;;4.00;;
22382;SDS011;11359;45.802;13.530;2023-02-15T14:35:05;5.20;;;3.92;;
22382;SDS011;11359;45.802;13.530;2023-02-15T14:37:46;5.22;;;3.83;;
22382;SDS011;11359;45.802;13.530;2023-02-15T14:40:32;4.60;;;3.88;;
22382;SDS011;11359;45.802;13.530;2023-02-15T14:46:53;5.35;;;4.43;;
22382;SDS011;11359;45.802;13.530;2023-02-15T15:01:58;5.78;;;5.00;;
22382;SDS011;11359;45.802;13.530;2023-02-15T15:04:37;6.55;;;5.40;;
22382;SDS011;11359;45.802;13.530;2023-02-15T15:09:36;6.60;;;5.63;;
22382;SDS011;11359;45.802;13.530;2023-02-15T15:14:43;6.40;;;5.35;;
22382;SDS011;11359;45.802;13.530;2023-02-15T15:17:11;5.70;;;5.10;;
22382;SDS011;11359;45.802;13.530;2023-02-15T15:20:01;5.47;;;4.88;;
22382;SDS011;11359;45.802;13.530;2023-02-15T15:22:41;6.45;;;5.55;;
22382;SDS011;11359;45.802;13.530;2023-02-15T15:27:56;7.03;;;6.32;;
22382;SDS011;11359;45.802;13.530;2023-02-15T15:49:15;8.07;;;7.05;;
22382;SDS011;11359;45.802;13.530;2023-02-15T15:51:44;7.60;;;6.75;;
22382;SDS011;11359;45.802;13.530;2023-02-15T15:54:18;6.78;;;5.47;;
22382;SDS011;11359;45.802;13.530;2023-02-15T15:57:00;6.10;;;5.43;;
22382;SDS011;11359;45.802;13.530;2023-02-15T15:59:33;5.78;;;5.10;;
22382;SDS011;11359;45.802;13.530;2023-02-15T16:02:11;7.07;;;6.03;;
22382;SDS011;11359;45.802;13.530;2023-02-15T16:04:43;8.82;;;6.45;;
22382;SDS011;11359;45.802;13.530;2023-02-15T16:07:27;7.85;;;6.30;;
22382;SDS011;11359;45.802;13.530;2023-02-15T16:09:54;6.80;;;6.10;;
22382;SDS011;11359;45.802;13.530;2023-02-15T16:12:35;6.93;;;5.80;;
22382;SDS011;11359;45.802;13.530;2023-02-15T16:15:25;6.88;;;6.15;;
22382;SDS011;11359;45.802;13.530;2023-02-15T16:17:51;7.32;;;6.53;;
22382;SDS011;11359;45.802;13.530;2023-02-15T16:20:22;7.35;;;5.95;;
22382;SDS011;11359;45.802;13.530;2023-02-15T16:22:53;7.13;;;6.05;;
22382;SDS011;11359;45.802;13.530;2023-02-15T16:25:47;7.68;;;6.65;;
22382;SDS011;11359;45.802;13.530;2023-02-15T16:28:21;8.07;;;6.43;;
22382;SDS011;11359;45.802;13.530;2023-02-15T16:30:54;7.60;;;6.53;;
22382;SDS011;11359;45.802;13.530;2023-02-15T16:33:36;7.43;;;6.45;;
22382;SDS011;11359;45.802;13.530;2023-02-15T16:41:14;7.75;;;6.78;;
22382;SDS011;11359;45.802;13.530;2023-02-15T16:43:43;7.68;;;6.50;;
22382;SDS011;11359;45.802;13.530;2023-02-15T16:46:24;7.10;;;6.30;;
22382;SDS011;11359;45.802;13.530;2023-02-15T16:48:57;8.27;;;7.05;;
22382;SDS011;11359;45.802;13.530;2023-02-15T16:51:28;8.18;;;6.80;;
22382;SDS011;11359;45.802;13.530;2023-02-15T16:53:58;6.95;;;6.25;;
22382;SDS011;11359;45.802;13.530;2023-02-15T16:56:30;7.60;;;6.78;;
22382;SDS011;11359;45.802;13.530;2023-02-15T16:58:58;7.20;;;6.25;;
22382;SDS011;11359;45.802;13.530;2023-02-15T17:01:29;7.43;;;6.30;;
22382;SDS011;11359;45.802;13.530;2023-02-15T17:04:13;7.93;;;6.55;;
22382;SDS011;11359;45.802;13.530;2023-02-15T17:06:59;9.60;;;6.97;;
22382;SDS011;11359;45.802;13.530;2023-02-15T17:09:31;7.93;;;7.13;;
22382;SDS011;11359;45.802;13.530;2023-02-15T17:11:58;7.72;;;6.32;;
22382;SDS011;11359;45.802;13.530;2023-02-15T17:14:28;7.25;;;6.25;;
22382;SDS011;11359;45.802;13.530;2023-02-15T17:17:08;8.73;;;7.20;;
22382;SDS011;11359;45.802;13.530;2023-02-15T17:22:38;8.30;;;7.18;;
22382;SDS011;11359;45.802;13.530;2023-02-15T17:25:05;8.70;;;7.47;;
22382;SDS011;11359;45.802;13.530;2023-02-15T17:27:30;7.68;;;6.88;;
22382;SDS011;11359;45.802;13.530;2023-02-15T17:30:01;8.38;;;6.72;;
22382;SDS011;11359;45.802;13.530;2023-02-15T17:32:37;8.32;;;6.65;;
22382;SDS011;11359;45.802;13.530;2023-02-15T17:35:23;7.40;;;6.40;;
22382;SDS011;11359;45.802;13.530;2023-02-15T17:38:00;6.70;;;6.00;;
22382;SDS011;11359;45.802;13.530;2023-02-15T17:40:31;6.72;;;5.97;;
22382;SDS011;11359;45.802;13.530;2023-02-15T17:42:58;6.55;;;5.80;;
22382;SDS011;11359;45.802;13.530;2023-02-15T17:45:26;7.93;;;6.55;;
22382;SDS011;11359;45.802;13.530;2023-02-15T17:47:57;7.00;;;6.13;;
22382;SDS011;11359;45.802;13.530;2023-02-15T17:50:26;7.88;;;6.78;;
22382;SDS011;11359;45.802;13.530;2023-02-15T17:52:53;8.38;;;6.65;;
22382;SDS011;11359;45.802;13.530;2023-02-15T17:55:22;7.68;;;6.80;;
22382;SDS011;11359;45.802;13.530;2023-02-15T17:58:02;7.68;;;6.53;;
22382;SDS011;11359;45.802;13.530;2023-02-15T18:00:31;7.15;;;6.25;;
22382;SDS011;11359;45.802;13.530;2023-02-15T18:03:18;7.55;;;6.50;;
22382;SDS011;11359;45.802;13.530;2023-02-15T18:06:05;8.38;;;7.00;;
22382;SDS011;11359;45.802;13.530;2023-02-15T18:08:50;7.70;;;6.78;;
22382;SDS011;11359;45.802;13.530;2023-02-15T18:11:35;9.30;;;7.18;;
22382;SDS011;11359;45.802;13.530;2023-02-15T18:14:02;7.43;;;6.22;;
22382;SDS011;11359;45.802;13.530;2023-02-15T18:16:29;8.32;;;7.10;;
22382;SDS011;11359;45.802;13.530;2023-02-15T18:19:03;7.38;;;6.50;;
22382;SDS011;11359;45.802;13.530;2023-02-15T18:21:30;8.05;;;6.63;;
22382;SDS011;11359;45.802;13.530;2023-02-15T18:24:00;8.82;;;7.10;;
22382;SDS011;11359;45.802;13.530;2023-02-15T18:26:26;7.53;;;6.70;;